sensor_id;sensor_type;location;lat;lon;timestamp;pressure;altitude;pressure_sealevel;temperature;humidity
57250;BME280;43102;52.014;-0.680;2023-05-23T00:00:00;101740;;;14.71;49.67
57250;BME280;43102;52.014;-0.680;2023-05-23T00:01:00;101742;;;14.73;49.84
57250;BME280;43102;52.014;-0.680;2023-05-23T00:02:00;101742;;;14.73;49.84
57250;BME280;43102;52.014;-0.680;2023-05-23T00:03:00;101742;;;14.73;49.84
57250;BME280;43102;52.014;-0.680;2023-05-23T00:04:00;101742;;;14.73;49.84
57250;BME280;43102;52.014;-0.680;2023-05-23T00:05:00;101742;;;14.73;49.84
57250;BME280;43102;52.014;-0.680;2023-05-23T00:06:00;101741;;;14.66;50.17
57250;BME280;43102;52.014;-0.680;2023-05-23T00:07:00;101741;;;14.66;50.17
57250;BME280;43102;52.014;-0.680;2023-05-23T00:08:00;101741;;;14.66;50.17
57250;BME280;43102;52.014;-0.680;2023-05-23T00:09:00;101741;;;14.66;50.17
57250;BME280;43102;52.014;-0.680;2023-05-23T00:10:00;101741;;;14.66;50.17
57250;BME280;43102;52.014;-0.680;2023-05-23T00:11:00;101742;;;14.67;50.18
57250;BME280;43102;52.014;-0.680;2023-05-23T00:12:00;101742;;;14.67;50.18
57250;BME280;43102;52.014;-0.680;2023-05-23T00:13:00;101742;;;14.67;50.18
57250;BME280;43102;52.014;-0.680;2023-05-23T00:14:00;101742;;;14.67;50.18
57250;BME280;43102;52.014;-0.680;2023-05-23T00:15:00;101742;;;14.67;50.18
57250;BME280;43102;52.014;-0.680;2023-05-23T00:16:00;101742;;;14.58;50.20
57250;BME280;43102;52.014;-0.680;2023-05-23T00:17:00;101742;;;14.58;50.20
57250;BME280;43102;52.014;-0.680;2023-05-23T00:18:00;101742;;;14.58;50.20
57250;BME280;43102;52.014;-0.680;2023-05-23T00:19:00;101742;;;14.58;50.20
57250;BME280;43102;52.014;-0.680;2023-05-23T00:20:00;101742;;;14.58;50.20
57250;BME280;43102;52.014;-0.680;2023-05-23T00:21:00;101732;;;14.47;50.34
57250;BME280;43102;52.014;-0.680;2023-05-23T00:22:00;101732;;;14.47;50.34
57250;BME280;43102;52.014;-0.680;2023-05-23T00:23:00;101732;;;14.47;50.34
57250;BME280;43102;52.014;-0.680;2023-05-23T00:24:00;101732;;;14.47;50.34
57250;BME280;43102;52.014;-0.680;2023-05-23T00:25:00;101732;;;14.47;50.34
57250;BME280;43102;52.014;-0.680;2023-05-23T00:26:00;101740;;;14.42;50.61
57250;BME280;43102;52.014;-0.680;2023-05-23T00:27:00;101740;;;14.42;50.61
57250;BME280;43102;52.014;-0.680;2023-05-23T00:28:00;101740;;;14.42;50.61
57250;BME280;43102;52.014;-0.680;2023-05-23T00:29:00;101740;;;14.42;50.61
57250;BME280;43102;52.014;-0.680;2023-05-23T00:30:00;101740;;;14.42;50.61
57250;BME280;43102;52.014;-0.680;2023-05-23T00:31:00;101736;;;14.32;50.88
57250;BME280;43102;52.014;-0.680;2023-05-23T00:32:00;101736;;;14.32;50.88
57250;BME280;43102;52.014;-0.680;2023-05-23T00:33:00;101736;;;14.32;50.88
57250;BME280;43102;52.014;-0.680;2023-05-23T00:34:00;101736;;;14.32;50.88
57250;BME280;43102;52.014;-0.680;2023-05-23T00:35:00;101736;;;14.32;50.88
57250;BME280;43102;52.014;-0.680;2023-05-23T00:36:00;101732;;;14.14;51.88
57250;BME280;43102;52.014;-0.680;2023-05-23T00:37:00;101732;;;14.14;51.88
57250;BME280;43102;52.014;-0.680;2023-05-23T00:38:00;101732;;;14.14;51.88
57250;BME280;43102;52.014;-0.680;2023-05-23T00:39:00;101732;;;14.14;51.88
57250;BME280;43102;52.014;-0.680;2023-05-23T00:40:00;101732;;;14.14;51.88
57250;BME280;43102;52.014;-0.680;2023-05-23T00:41:00;101728;;;14.02;52.37
57250;BME280;43102;52.014;-0.680;2023-05-23T00:42:02;101728;;;14.02;52.37
57250;BME280;43102;52.014;-0.680;2023-05-23T00:43:00;101728;;;14.02;52.37
57250;BME280;43102;52.014;-0.680;2023-05-23T00:44:00;101728;;;14.02;52.37
57250;BME280;43102;52.014;-0.680;2023-05-23T00:45:00;101728;;;14.02;52.37
57250;BME280;43102;52.014;-0.680;2023-05-23T00:46:00;101723;;;14.01;52.53
57250;BME280;43102;52.014;-0.680;2023-05-23T00:47:00;101723;;;14.01;52.53
57250;BME280;43102;52.014;-0.680;2023-05-23T00:48:00;101723;;;14.01;52.53
57250;BME280;43102;52.014;-0.680;2023-05-23T00:49:00;101723;;;14.01;52.53
57250;BME280;43102;52.014;-0.680;2023-05-23T00:50:00;101723;;;14.01;52.53
57250;BME280;43102;52.014;-0.680;2023-05-23T00:51:00;101728;;;14.06;52.66
57250;BME280;43102;52.014;-0.680;2023-05-23T00:52:00;101728;;;14.06;52.66
57250;BME280;43102;52.014;-0.680;2023-05-23T00:53:00;101728;;;14.06;52.66
57250;BME280;43102;52.014;-0.680;2023-05-23T00:54:00;101728;;;14.06;52.66
57250;BME280;43102;52.014;-0.680;2023-05-23T00:55:00;101728;;;14.06;52.66
57250;BME280;43102;52.014;-0.680;2023-05-23T00:56:00;101729;;;13.98;53.09
57250;BME280;43102;52.014;-0.680;2023-05-23T00:57:00;101729;;;13.98;53.09
57250;BME280;43102;52.014;-0.680;2023-05-23T00:58:00;101729;;;13.98;53.09
57250;BME280;43102;52.014;-0.680;2023-05-23T00:59:00;101729;;;13.98;53.09
57250;BME280;43102;52.014;-0.680;2023-05-23T01:00:00;101729;;;13.98;53.09
57250;BME280;43102;52.014;-0.680;2023-05-23T01:01:00;101736;;;13.95;53.37
57250;BME280;43102;52.014;-0.680;2023-05-23T01:02:00;101736;;;13.95;53.37
57250;BME280;43102;52.014;-0.680;2023-05-23T01:03:00;101736;;;13.95;53.37
57250;BME280;43102;52.014;-0.680;2023-05-23T01:04:00;101736;;;13.95;53.37
57250;BME280;43102;52.014;-0.680;2023-05-23T01:05:00;101736;;;13.95;53.37
57250;BME280;43102;52.014;-0.680;2023-05-23T01:06:00;101730;;;13.93;53.61
57250;BME280;43102;52.014;-0.680;2023-05-23T01:07:00;101730;;;13.93;53.61
57250;BME280;43102;52.014;-0.680;2023-05-23T01:08:00;101730;;;13.93;53.61
57250;BME280;43102;52.014;-0.680;2023-05-23T01:09:00;101730;;;13.93;53.61
57250;BME280;43102;52.014;-0.680;2023-05-23T01:10:00;101730;;;13.93;53.61
57250;BME280;43102;52.014;-0.680;2023-05-23T01:11:00;101731;;;14.02;53.48
57250;BME280;43102;52.014;-0.680;2023-05-23T01:14:03;101731;;;14.02;53.48
57250;BME280;43102;52.014;-0.680;2023-05-23T01:16:06;101736;;;14.07;53.38
57250;BME280;43102;52.014;-0.680;2023-05-23T01:17:02;101736;;;14.07;53.38
57250;BME280;43102;52.014;-0.680;2023-05-23T01:18:01;101736;;;14.07;53.38
57250;BME280;43102;52.014;-0.680;2023-05-23T01:19:10;101736;;;14.07;53.38
57250;BME280;43102;52.014;-0.680;2023-05-23T01:21:02;101741;;;13.99;53.44
57250;BME280;43102;52.014;-0.680;2023-05-23T01:22:00;101741;;;13.99;53.44
57250;BME280;43102;52.014;-0.680;2023-05-23T01:25:06;101741;;;13.99;53.44
57250;BME280;43102;52.014;-0.680;2023-05-23T01:26:09;101743;;;13.95;53.49
57250;BME280;43102;52.014;-0.680;2023-05-23T01:27:02;101743;;;13.95;53.49
57250;BME280;43102;52.014;-0.680;2023-05-23T01:28:00;101743;;;13.95;53.49
57250;BME280;43102;52.014;-0.680;2023-05-23T01:29:07;101743;;;13.95;53.49
57250;BME280;43102;52.014;-0.680;2023-05-23T01:30:00;101743;;;13.95;53.49
57250;BME280;43102;52.014;-0.680;2023-05-23T01:31:01;101740;;;13.87;53.86
57250;BME280;43102;52.014;-0.680;2023-05-23T01:32:00;101740;;;13.87;53.86
57250;BME280;43102;52.014;-0.680;2023-05-23T01:33:00;101740;;;13.87;53.86
57250;BME280;43102;52.014;-0.680;2023-05-23T01:34:00;101740;;;13.87;53.86
57250;BME280;43102;52.014;-0.680;2023-05-23T01:35:00;101740;;;13.87;53.86
57250;BME280;43102;52.014;-0.680;2023-05-23T01:36:00;101740;;;13.87;54.12
57250;BME280;43102;52.014;-0.680;2023-05-23T01:37:00;101740;;;13.87;54.12
57250;BME280;43102;52.014;-0.680;2023-05-23T01:38:00;101740;;;13.87;54.12
57250;BME280;43102;52.014;-0.680;2023-05-23T01:39:00;101740;;;13.87;54.12
57250;BME280;43102;52.014;-0.680;2023-05-23T01:40:00;101740;;;13.87;54.12
57250;BME280;43102;52.014;-0.680;2023-05-23T01:41:00;101740;;;13.89;54.05
57250;BME280;43102;52.014;-0.680;2023-05-23T01:42:00;101740;;;13.89;54.05
57250;BME280;43102;52.014;-0.680;2023-05-23T01:43:00;101740;;;13.89;54.05
57250;BME280;43102;52.014;-0.680;2023-05-23T01:44:00;101740;;;13.89;54.05
57250;BME280;43102;52.014;-0.680;2023-05-23T01:45:00;101740;;;13.89;54.05
57250;BME280;43102;52.014;-0.680;2023-05-23T01:46:00;101745;;;13.86;54.08
57250;BME280;43102;52.014;-0.680;2023-05-23T01:47:01;101745;;;13.86;54.08
57250;BME280;43102;52.014;-0.680;2023-05-23T01:48:00;101745;;;13.86;54.08
57250;BME280;43102;52.014;-0.680;2023-05-23T01:49:00;101745;;;13.86;54.08
57250;BME280;43102;52.014;-0.680;2023-05-23T01:50:00;101745;;;13.86;54.08
57250;BME280;43102;52.014;-0.680;2023-05-23T01:51:00;101748;;;13.79;54.24
57250;BME280;43102;52.014;-0.680;2023-05-23T01:52:00;101748;;;13.79;54.24
57250;BME280;43102;52.014;-0.680;2023-05-23T01:53:00;101748;;;13.79;54.24
57250;BME280;43102;52.014;-0.680;2023-05-23T01:54:00;101748;;;13.79;54.24
57250;BME280;43102;52.014;-0.680;2023-05-23T01:55:00;101748;;;13.79;54.24
57250;BME280;43102;52.014;-0.680;2023-05-23T01:56:00;101749;;;13.75;54.44
57250;BME280;43102;52.014;-0.680;2023-05-23T01:57:00;101749;;;13.75;54.44
57250;BME280;43102;52.014;-0.680;2023-05-23T01:58:00;101749;;;13.75;54.44
57250;BME280;43102;52.014;-0.680;2023-05-23T01:59:00;101749;;;13.75;54.44
57250;BME280;43102;52.014;-0.680;2023-05-23T02:00:00;101749;;;13.75;54.44
57250;BME280;43102;52.014;-0.680;2023-05-23T02:01:00;101755;;;13.75;54.44
57250;BME280;43102;52.014;-0.680;2023-05-23T02:02:00;101755;;;13.75;54.44
57250;BME280;43102;52.014;-0.680;2023-05-23T02:03:00;101755;;;13.75;54.44
57250;BME280;43102;52.014;-0.680;2023-05-23T02:04:00;101755;;;13.75;54.44
57250;BME280;43102;52.014;-0.680;2023-05-23T02:05:00;101755;;;13.75;54.44
57250;BME280;43102;52.014;-0.680;2023-05-23T02:06:00;101752;;;13.72;54.72
57250;BME280;43102;52.014;-0.680;2023-05-23T02:07:00;101752;;;13.72;54.72
57250;BME280;43102;52.014;-0.680;2023-05-23T02:08:00;101752;;;13.72;54.72
57250;BME280;43102;52.014;-0.680;2023-05-23T02:09:00;101752;;;13.72;54.72
57250;BME280;43102;52.014;-0.680;2023-05-23T02:10:00;101752;;;13.72;54.72
57250;BME280;43102;52.014;-0.680;2023-05-23T02:11:00;101759;;;13.75;54.68
57250;BME280;43102;52.014;-0.680;2023-05-23T02:12:00;101759;;;13.75;54.68
57250;BME280;43102;52.014;-0.680;2023-05-23T02:13:00;101759;;;13.75;54.68
57250;BME280;43102;52.014;-0.680;2023-05-23T02:14:00;101759;;;13.75;54.68
57250;BME280;43102;52.014;-0.680;2023-05-23T02:15:00;101759;;;13.75;54.68
57250;BME280;43102;52.014;-0.680;2023-05-23T02:16:00;101768;;;13.69;54.73
57250;BME280;43102;52.014;-0.680;2023-05-23T02:17:00;101768;;;13.69;54.73
57250;BME280;43102;52.014;-0.680;2023-05-23T02:18:00;101768;;;13.69;54.73
57250;BME280;43102;52.014;-0.680;2023-05-23T02:19:00;101768;;;13.69;54.73
57250;BME280;43102;52.014;-0.680;2023-05-23T02:20:00;101768;;;13.69;54.73
57250;BME280;43102;52.014;-0.680;2023-05-23T02:21:00;101763;;;13.70;54.78
57250;BME280;43102;52.014;-0.680;2023-05-23T02:22:00;101763;;;13.70;54.78
57250;BME280;43102;52.014;-0.680;2023-05-23T02:23:00;101763;;;13.70;54.78
57250;BME280;43102;52.014;-0.680;2023-05-23T02:24:00;101763;;;13.70;54.78
57250;BME280;43102;52.014;-0.680;2023-05-23T02:25:00;101763;;;13.70;54.78
57250;BME280;43102;52.014;-0.680;2023-05-23T02:26:00;101763;;;13.66;54.83
57250;BME280;43102;52.014;-0.680;2023-05-23T02:27:00;101763;;;13.66;54.83
57250;BME280;43102;52.014;-0.680;2023-05-23T02:28:00;101763;;;13.66;54.83
57250;BME280;43102;52.014;-0.680;2023-05-23T02:29:00;101763;;;13.66;54.83
57250;BME280;43102;52.014;-0.680;2023-05-23T02:30:00;101763;;;13.66;54.83
57250;BME280;43102;52.014;-0.680;2023-05-23T02:31:00;101771;;;13.60;54.76
57250;BME280;43102;52.014;-0.680;2023-05-23T02:32:00;101771;;;13.60;54.76
57250;BME280;43102;52.014;-0.680;2023-05-23T02:33:03;101771;;;13.60;54.76
57250;BME280;43102;52.014;-0.680;2023-05-23T02:34:00;101771;;;13.60;54.76
57250;BME280;43102;52.014;-0.680;2023-05-23T02:35:00;101771;;;13.60;54.76
57250;BME280;43102;52.014;-0.680;2023-05-23T02:36:00;101769;;;13.49;55.02
57250;BME280;43102;52.014;-0.680;2023-05-23T02:37:00;101769;;;13.49;55.02
57250;BME280;43102;52.014;-0.680;2023-05-23T02:38:00;101769;;;13.49;55.02
57250;BME280;43102;52.014;-0.680;2023-05-23T02:39:00;101769;;;13.49;55.02
57250;BME280;43102;52.014;-0.680;2023-05-23T02:40:00;101769;;;13.49;55.02
57250;BME280;43102;52.014;-0.680;2023-05-23T02:41:00;101763;;;13.46;55.08
57250;BME280;43102;52.014;-0.680;2023-05-23T02:42:00;101763;;;13.46;55.08
57250;BME280;43102;52.014;-0.680;2023-05-23T02:43:00;101763;;;13.46;55.08
57250;BME280;43102;52.014;-0.680;2023-05-23T02:44:00;101763;;;13.46;55.08
57250;BME280;43102;52.014;-0.680;2023-05-23T02:45:00;101763;;;13.46;55.08
57250;BME280;43102;52.014;-0.680;2023-05-23T02:46:00;101766;;;13.43;55.17
57250;BME280;43102;52.014;-0.680;2023-05-23T02:47:00;101766;;;13.43;55.17
57250;BME280;43102;52.014;-0.680;2023-05-23T02:48:00;101766;;;13.43;55.17
57250;BME280;43102;52.014;-0.680;2023-05-23T02:49:00;101766;;;13.43;55.17
57250;BME280;43102;52.014;-0.680;2023-05-23T02:50:00;101766;;;13.43;55.17
57250;BME280;43102;52.014;-0.680;2023-05-23T02:51:00;101772;;;13.39;55.25
57250;BME280;43102;52.014;-0.680;2023-05-23T02:52:00;101772;;;13.39;55.25
57250;BME280;43102;52.014;-0.680;2023-05-23T02:53:00;101772;;;13.39;55.25
57250;BME280;43102;52.014;-0.680;2023-05-23T02:54:00;101772;;;13.39;55.25
57250;BME280;43102;52.014;-0.680;2023-05-23T02:55:00;101772;;;13.39;55.25
57250;BME280;43102;52.014;-0.680;2023-05-23T02:56:00;101766;;;13.34;55.36
57250;BME280;43102;52.014;-0.680;2023-05-23T02:57:00;101766;;;13.34;55.36
57250;BME280;43102;52.014;-0.680;2023-05-23T02:58:00;101766;;;13.34;55.36
57250;BME280;43102;52.014;-0.680;2023-05-23T02:59:00;101766;;;13.34;55.36
57250;BME280;43102;52.014;-0.680;2023-05-23T03:00:00;101766;;;13.34;55.36
57250;BME280;43102;52.014;-0.680;2023-05-23T03:01:01;101768;;;13.31;55.49
57250;BME280;43102;52.014;-0.680;2023-05-23T03:02:00;101768;;;13.31;55.49
57250;BME280;43102;52.014;-0.680;2023-05-23T03:03:00;101768;;;13.31;55.49
57250;BME280;43102;52.014;-0.680;2023-05-23T03:04:00;101768;;;13.31;55.49
57250;BME280;43102;52.014;-0.680;2023-05-23T03:05:00;101768;;;13.31;55.49
57250;BME280;43102;52.014;-0.680;2023-05-23T03:06:01;101772;;;13.06;56.08
57250;BME280;43102;52.014;-0.680;2023-05-23T03:07:00;101772;;;13.06;56.08
57250;BME280;43102;52.014;-0.680;2023-05-23T03:08:00;101772;;;13.06;56.08
57250;BME280;43102;52.014;-0.680;2023-05-23T03:09:00;101772;;;13.06;56.08
57250;BME280;43102;52.014;-0.680;2023-05-23T03:10:00;101772;;;13.06;56.08
57250;BME280;43102;52.014;-0.680;2023-05-23T03:11:00;101769;;;12.88;56.39
57250;BME280;43102;52.014;-0.680;2023-05-23T03:12:00;101769;;;12.88;56.39
57250;BME280;43102;52.014;-0.680;2023-05-23T03:13:00;101769;;;12.88;56.39
57250;BME280;43102;52.014;-0.680;2023-05-23T03:14:00;101769;;;12.88;56.39
57250;BME280;43102;52.014;-0.680;2023-05-23T03:15:00;101769;;;12.88;56.39
57250;BME280;43102;52.014;-0.680;2023-05-23T03:16:00;101774;;;12.91;56.45
57250;BME280;43102;52.014;-0.680;2023-05-23T03:17:00;101774;;;12.91;56.45
57250;BME280;43102;52.014;-0.680;2023-05-23T03:18:00;101774;;;12.91;56.45
57250;BME280;43102;52.014;-0.680;2023-05-23T03:19:00;101774;;;12.91;56.45
57250;BME280;43102;52.014;-0.680;2023-05-23T03:20:00;101774;;;12.91;56.45
57250;BME280;43102;52.014;-0.680;2023-05-23T03:21:00;101774;;;12.93;56.47
57250;BME280;43102;52.014;-0.680;2023-05-23T03:22:00;101774;;;12.93;56.47
57250;BME280;43102;52.014;-0.680;2023-05-23T03:23:00;101774;;;12.93;56.47
57250;BME280;43102;52.014;-0.680;2023-05-23T03:24:00;101774;;;12.93;56.47
57250;BME280;43102;52.014;-0.680;2023-05-23T03:25:00;101774;;;12.93;56.47
57250;BME280;43102;52.014;-0.680;2023-05-23T03:26:00;101772;;;12.95;56.53
57250;BME280;43102;52.014;-0.680;2023-05-23T03:27:00;101772;;;12.95;56.53
57250;BME280;43102;52.014;-0.680;2023-05-23T03:28:00;101772;;;12.95;56.53
57250;BME280;43102;52.014;-0.680;2023-05-23T03:29:00;101772;;;12.95;56.53
57250;BME280;43102;52.014;-0.680;2023-05-23T03:30:00;101772;;;12.95;56.53
57250;BME280;43102;52.014;-0.680;2023-05-23T03:31:00;101774;;;12.92;56.58
57250;BME280;43102;52.014;-0.680;2023-05-23T03:32:00;101774;;;12.92;56.58
57250;BME280;43102;52.014;-0.680;2023-05-23T03:33:00;101774;;;12.92;56.58
57250;BME280;43102;52.014;-0.680;2023-05-23T03:34:00;101774;;;12.92;56.58
57250;BME280;43102;52.014;-0.680;2023-05-23T03:35:00;101774;;;12.92;56.58
57250;BME280;43102;52.014;-0.680;2023-05-23T03:36:00;101775;;;12.64;56.97
57250;BME280;43102;52.014;-0.680;2023-05-23T03:37:00;101775;;;12.64;56.97
57250;BME280;43102;52.014;-0.680;2023-05-23T03:38:00;101775;;;12.64;56.97
57250;BME280;43102;52.014;-0.680;2023-05-23T03:39:00;101775;;;12.64;56.97
57250;BME280;43102;52.014;-0.680;2023-05-23T03:40:00;101775;;;12.64;56.97
57250;BME280;43102;52.014;-0.680;2023-05-23T03:41:00;101773;;;12.62;57.16
57250;BME280;43102;52.014;-0.680;2023-05-23T03:42:00;101773;;;12.62;57.16
57250;BME280;43102;52.014;-0.680;2023-05-23T03:43:00;101773;;;12.62;57.16
57250;BME280;43102;52.014;-0.680;2023-05-23T03:44:00;101773;;;12.62;57.16
57250;BME280;43102;52.014;-0.680;2023-05-23T03:45:00;101773;;;12.62;57.16
57250;BME280;43102;52.014;-0.680;2023-05-23T03:46:00;101774;;;12.52;57.27
57250;BME280;43102;52.014;-0.680;2023-05-23T03:47:00;101774;;;12.52;57.27
57250;BME280;43102;52.014;-0.680;2023-05-23T03:48:00;101774;;;12.52;57.27
57250;BME280;43102;52.014;-0.680;2023-05-23T03:49:00;101774;;;12.52;57.27
57250;BME280;43102;52.014;-0.680;2023-05-23T03:50:00;101774;;;12.52;57.27
57250;BME280;43102;52.014;-0.680;2023-05-23T03:51:00;101782;;;12.47;57.31
57250;BME280;43102;52.014;-0.680;2023-05-23T03:52:00;101782;;;12.47;57.31
57250;BME280;43102;52.014;-0.680;2023-05-23T03:53:00;101782;;;12.47;57.31
57250;BME280;43102;52.014;-0.680;2023-05-23T03:54:00;101782;;;12.47;57.31
57250;BME280;43102;52.014;-0.680;2023-05-23T03:55:00;101782;;;12.47;57.31
57250;BME280;43102;52.014;-0.680;2023-05-23T03:56:00;101783;;;12.29;57.65
57250;BME280;43102;52.014;-0.680;2023-05-23T03:57:00;101783;;;12.29;57.65
57250;BME280;43102;52.014;-0.680;2023-05-23T03:58:00;101783;;;12.29;57.65
57250;BME280;43102;52.014;-0.680;2023-05-23T03:59:00;101783;;;12.29;57.65
57250;BME280;43102;52.014;-0.680;2023-05-23T04:00:00;101783;;;12.29;57.65
57250;BME280;43102;52.014;-0.680;2023-05-23T04:01:00;101779;;;12.08;58.09
57250;BME280;43102;52.014;-0.680;2023-05-23T04:02:00;101779;;;12.08;58.09
57250;BME280;43102;52.014;-0.680;2023-05-23T04:03:00;101779;;;12.08;58.09
57250;BME280;43102;52.014;-0.680;2023-05-23T04:04:00;101779;;;12.08;58.09
57250;BME280;43102;52.014;-0.680;2023-05-23T04:05:00;101779;;;12.08;58.09
57250;BME280;43102;52.014;-0.680;2023-05-23T04:06:00;101784;;;12.01;58.54
57250;BME280;43102;52.014;-0.680;2023-05-23T04:07:00;101784;;;12.01;58.54
57250;BME280;43102;52.014;-0.680;2023-05-23T04:08:00;101784;;;12.01;58.54
57250;BME280;43102;52.014;-0.680;2023-05-23T04:09:00;101784;;;12.01;58.54
57250;BME280;43102;52.014;-0.680;2023-05-23T04:10:00;101784;;;12.01;58.54
57250;BME280;43102;52.014;-0.680;2023-05-23T04:11:00;101779;;;12.14;58.43
57250;BME280;43102;52.014;-0.680;2023-05-23T04:12:00;101779;;;12.14;58.43
57250;BME280;43102;52.014;-0.680;2023-05-23T04:13:00;101779;;;12.14;58.43
57250;BME280;43102;52.014;-0.680;2023-05-23T04:14:00;101779;;;12.14;58.43
57250;BME280;43102;52.014;-0.680;2023-05-23T04:15:00;101779;;;12.14;58.43
57250;BME280;43102;52.014;-0.680;2023-05-23T04:16:00;101789;;;12.16;58.14
57250;BME280;43102;52.014;-0.680;2023-05-23T04:17:00;101789;;;12.16;58.14
57250;BME280;43102;52.014;-0.680;2023-05-23T04:18:00;101789;;;12.16;58.14
57250;BME280;43102;52.014;-0.680;2023-05-23T04:19:00;101789;;;12.16;58.14
57250;BME280;43102;52.014;-0.680;2023-05-23T04:20:00;101789;;;12.16;58.14
57250;BME280;43102;52.014;-0.680;2023-05-23T04:21:00;101795;;;12.07;58.32
57250;BME280;43102;52.014;-0.680;2023-05-23T04:22:00;101795;;;12.07;58.32
57250;BME280;43102;52.014;-0.680;2023-05-23T04:23:00;101795;;;12.07;58.32
57250;BME280;43102;52.014;-0.680;2023-05-23T04:24:00;101795;;;12.07;58.32
57250;BME280;43102;52.014;-0.680;2023-05-23T04:25:00;101795;;;12.07;58.32
57250;BME280;43102;52.014;-0.680;2023-05-23T04:26:00;101793;;;12.01;58.60
57250;BME280;43102;52.014;-0.680;2023-05-23T04:27:00;101793;;;12.01;58.60
57250;BME280;43102;52.014;-0.680;2023-05-23T04:28:00;101793;;;12.01;58.60
57250;BME280;43102;52.014;-0.680;2023-05-23T04:29:00;101793;;;12.01;58.60
57250;BME280;43102;52.014;-0.680;2023-05-23T04:30:00;101793;;;12.01;58.60
57250;BME280;43102;52.014;-0.680;2023-05-23T04:31:00;101794;;;12.05;58.78
57250;BME280;43102;52.014;-0.680;2023-05-23T04:32:00;101794;;;12.05;58.78
57250;BME280;43102;52.014;-0.680;2023-05-23T04:33:00;101794;;;12.05;58.78
57250;BME280;43102;52.014;-0.680;2023-05-23T04:34:00;101794;;;12.05;58.78
57250;BME280;43102;52.014;-0.680;2023-05-23T04:35:00;101794;;;12.05;58.78
57250;BME280;43102;52.014;-0.680;2023-05-23T04:36:00;101796;;;11.98;59.22
57250;BME280;43102;52.014;-0.680;2023-05-23T04:37:00;101796;;;11.98;59.22
57250;BME280;43102;52.014;-0.680;2023-05-23T04:38:00;101796;;;11.98;59.22
57250;BME280;43102;52.014;-0.680;2023-05-23T04:39:00;101796;;;11.98;59.22
57250;BME280;43102;52.014;-0.680;2023-05-23T04:40:00;101796;;;11.98;59.22
57250;BME280;43102;52.014;-0.680;2023-05-23T04:41:00;101805;;;11.99;59.50
57250;BME280;43102;52.014;-0.680;2023-05-23T04:42:00;101805;;;11.99;59.50
57250;BME280;43102;52.014;-0.680;2023-05-23T04:43:00;101805;;;11.99;59.50
57250;BME280;43102;52.014;-0.680;2023-05-23T04:44:00;101805;;;11.99;59.50
57250;BME280;43102;52.014;-0.680;2023-05-23T04:45:00;101805;;;11.99;59.50
57250;BME280;43102;52.014;-0.680;2023-05-23T04:46:00;101800;;;11.98;59.94
57250;BME280;43102;52.014;-0.680;2023-05-23T04:47:00;101800;;;11.98;59.94
57250;BME280;43102;52.014;-0.680;2023-05-23T04:48:00;101800;;;11.98;59.94
57250;BME280;43102;52.014;-0.680;2023-05-23T04:49:00;101800;;;11.98;59.94
57250;BME280;43102;52.014;-0.680;2023-05-23T04:50:00;101800;;;11.98;59.94
57250;BME280;43102;52.014;-0.680;2023-05-23T04:51:00;101813;;;12.08;59.93
57250;BME280;43102;52.014;-0.680;2023-05-23T04:52:00;101813;;;12.08;59.93
57250;BME280;43102;52.014;-0.680;2023-05-23T04:53:00;101813;;;12.08;59.93
57250;BME280;43102;52.014;-0.680;2023-05-23T04:54:00;101813;;;12.08;59.93
57250;BME280;43102;52.014;-0.680;2023-05-23T04:55:00;101813;;;12.08;59.93
57250;BME280;43102;52.014;-0.680;2023-05-23T04:56:00;101811;;;12.24;59.85
57250;BME280;43102;52.014;-0.680;2023-05-23T04:57:00;101811;;;12.24;59.85
57250;BME280;43102;52.014;-0.680;2023-05-23T04:58:00;101811;;;12.24;59.85
57250;BME280;43102;52.014;-0.680;2023-05-23T04:59:00;101811;;;12.24;59.85
57250;BME280;43102;52.014;-0.680;2023-05-23T05:00:00;101811;;;12.24;59.85
57250;BME280;43102;52.014;-0.680;2023-05-23T05:01:00;101819;;;12.39;59.75
57250;BME280;43102;52.014;-0.680;2023-05-23T05:02:00;101819;;;12.39;59.75
57250;BME280;43102;52.014;-0.680;2023-05-23T05:03:00;101819;;;12.39;59.75
57250;BME280;43102;52.014;-0.680;2023-05-23T05:04:00;101819;;;12.39;59.75
57250;BME280;43102;52.014;-0.680;2023-05-23T05:05:00;101819;;;12.39;59.75
57250;BME280;43102;52.014;-0.680;2023-05-23T05:06:00;101827;;;12.50;60.05
57250;BME280;43102;52.014;-0.680;2023-05-23T05:07:00;101827;;;12.50;60.05
57250;BME280;43102;52.014;-0.680;2023-05-23T05:08:00;101827;;;12.50;60.05
57250;BME280;43102;52.014;-0.680;2023-05-23T05:09:00;101827;;;12.50;60.05
57250;BME280;43102;52.014;-0.680;2023-05-23T05:10:00;101827;;;12.50;60.05
57250;BME280;43102;52.014;-0.680;2023-05-23T05:11:00;101825;;;12.70;59.93
57250;BME280;43102;52.014;-0.680;2023-05-23T05:12:00;101825;;;12.70;59.93
57250;BME280;43102;52.014;-0.680;2023-05-23T05:13:00;101825;;;12.70;59.93
57250;BME280;43102;52.014;-0.680;2023-05-23T05:14:00;101825;;;12.70;59.93
57250;BME280;43102;52.014;-0.680;2023-05-23T05:15:01;101825;;;12.70;59.93
57250;BME280;43102;52.014;-0.680;2023-05-23T05:16:00;101822;;;12.87;60.02
57250;BME280;43102;52.014;-0.680;2023-05-23T05:17:00;101822;;;12.87;60.02
57250;BME280;43102;52.014;-0.680;2023-05-23T05:18:00;101822;;;12.87;60.02
57250;BME280;43102;52.014;-0.680;2023-05-23T05:19:00;101822;;;12.87;60.02
57250;BME280;43102;52.014;-0.680;2023-05-23T05:20:00;101822;;;12.87;60.02
57250;BME280;43102;52.014;-0.680;2023-05-23T05:21:00;101825;;;12.96;59.95
57250;BME280;43102;52.014;-0.680;2023-05-23T05:22:00;101825;;;12.96;59.95
57250;BME280;43102;52.014;-0.680;2023-05-23T05:23:00;101825;;;12.96;59.95
57250;BME280;43102;52.014;-0.680;2023-05-23T05:24:00;101825;;;12.96;59.95
57250;BME280;43102;52.014;-0.680;2023-05-23T05:25:00;101825;;;12.96;59.95
57250;BME280;43102;52.014;-0.680;2023-05-23T05:26:00;101812;;;13.03;60.04
57250;BME280;43102;52.014;-0.680;2023-05-23T05:27:02;101812;;;13.03;60.04